createdAt,value
2022-12-22T00:00:07.984Z,80.00
2022-12-22T00:02:53.811Z,67.30
2022-12-22T00:05:41.974Z,56.20
2022-12-22T00:08:28.914Z,52.80
2022-12-22T00:11:15.895Z,52.50
2022-12-22T00:14:03.542Z,52.60
2022-12-22T00:16:56.760Z,51.40
2022-12-22T00:19:42.389Z,53.00
2022-12-22T00:22:33.933Z,52.30
2022-12-22T00:25:19.546Z,51.90
2022-12-22T00:28:05.166Z,53.10
2022-12-22T00:30:50.875Z,51.60
2022-12-22T00:33:38.536Z,51.60
2022-12-22T00:36:25.884Z,51.40
2022-12-22T00:39:11.767Z,55.50
2022-12-22T00:41:57.569Z,53.30
2022-12-22T00:44:43.151Z,56.20
2022-12-22T00:47:42.539Z,60.20
2022-12-22T00:50:29.322Z,63.00
2022-12-22T00:53:15.834Z,67.60
2022-12-22T00:56:01.496Z,65.70
2022-12-22T00:58:47.453Z,71.20
2022-12-22T01:01:33.281Z,70.30
2022-12-22T01:04:18.884Z,65.00
2022-12-22T01:07:04.613Z,60.50
2022-12-22T01:09:50.299Z,63.10
2022-12-22T01:12:42.395Z,58.40
2022-12-22T01:15:34.067Z,56.70
2022-12-22T01:18:19.664Z,57.80
2022-12-22T01:21:05.336Z,57.80
2022-12-22T01:23:51.112Z,57.40
2022-12-22T01:26:37.055Z,61.20
2022-12-22T01:29:22.769Z,63.60
2022-12-22T01:32:08.290Z,68.00
2022-12-22T01:34:55.059Z,70.70
2022-12-22T01:37:40.756Z,75.30
2022-12-22T01:40:33.887Z,72.70
2022-12-22T01:43:19.566Z,74.60
2022-12-22T01:46:06.311Z,77.80
2022-12-22T01:48:52.274Z,90.40
2022-12-22T01:51:46.723Z,91.00
2022-12-22T01:54:33.728Z,97.20
2022-12-22T01:57:20.164Z,99.90
2022-12-22T02:00:05.768Z,99.90
2022-12-22T02:02:51.524Z,96.20
2022-12-22T02:05:39.098Z,87.80
2022-12-22T02:08:27.800Z,91.70
2022-12-22T02:11:20.887Z,94.50
2022-12-22T02:14:27.714Z,91.80
2022-12-22T02:17:43.814Z,93.20
2022-12-22T02:20:52.648Z,99.20
2022-12-22T02:24:10.535Z,99.90
2022-12-22T02:27:04.044Z,99.90
2022-12-22T02:30:14.764Z,99.90
2022-12-22T02:33:09.114Z,99.90
2022-12-22T02:36:01.727Z,99.90
2022-12-22T02:38:59.545Z,99.90
2022-12-22T02:41:57.419Z,99.90
2022-12-22T02:45:16.743Z,99.90
2022-12-22T02:48:23.881Z,99.90
2022-12-22T02:51:27.360Z,99.90
2022-12-22T02:54:15.820Z,97.90
2022-12-22T02:57:02.117Z,99.90
2022-12-22T02:59:47.593Z,97.50
2022-12-22T03:02:33.416Z,97.60
2022-12-22T03:05:19.568Z,99.90
2022-12-22T03:08:08.549Z,99.90
2022-12-22T03:10:55.368Z,99.50
2022-12-22T03:13:41.060Z,99.90
2022-12-22T03:16:26.712Z,99.90
2022-12-22T03:19:12.572Z,99.90
2022-12-22T03:21:58.523Z,99.90
2022-12-22T03:24:44.098Z,99.90
2022-12-22T03:27:11.294Z,99.90
2022-12-22T03:29:38.634Z,99.90
2022-12-22T03:32:05.901Z,99.90
2022-12-22T03:34:33.049Z,99.90
2022-12-22T03:37:00.269Z,99.90
2022-12-22T03:39:27.497Z,99.90
2022-12-22T03:42:13.256Z,99.90
2022-12-22T03:44:58.840Z,99.90
2022-12-22T03:47:25.990Z,99.90
2022-12-22T03:49:53.099Z,99.90
2022-12-22T03:52:20.267Z,99.90
2022-12-22T03:54:47.408Z,99.90
2022-12-22T03:57:14.617Z,99.90
2022-12-22T03:59:41.795Z,99.90
2022-12-22T04:02:09.000Z,99.90
2022-12-22T04:04:36.235Z,99.90
2022-12-22T04:07:03.405Z,99.90
2022-12-22T04:09:30.554Z,99.90
2022-12-22T04:12:16.172Z,99.90
2022-12-22T04:14:43.285Z,99.90
2022-12-22T04:17:10.465Z,99.90
2022-12-22T04:19:37.588Z,99.90
2022-12-22T04:22:05.290Z,99.90
2022-12-22T04:24:32.452Z,99.90
2022-12-22T04:26:59.578Z,99.90
2022-12-22T04:29:26.699Z,99.90
2022-12-22T04:31:53.952Z,99.90
2022-12-22T04:34:21.166Z,99.90
2022-12-22T04:36:48.301Z,99.90
2022-12-22T04:39:15.436Z,99.90
2022-12-22T04:41:42.539Z,99.90
2022-12-22T04:44:09.682Z,99.90
2022-12-22T04:46:36.810Z,99.90
2022-12-22T04:49:04.546Z,99.90
2022-12-22T04:51:31.656Z,99.90
2022-12-22T04:53:58.822Z,99.90
2022-12-22T04:56:25.978Z,99.90
2022-12-22T04:58:53.167Z,99.90
2022-12-22T05:01:20.603Z,99.90
2022-12-22T05:03:48.103Z,99.90
2022-12-22T05:06:15.936Z,99.90
2022-12-22T05:08:43.445Z,99.90
2022-12-22T05:11:10.601Z,99.90
2022-12-22T05:13:38.170Z,99.90
2022-12-22T05:16:16.685Z,99.90
2022-12-22T05:18:45.536Z,99.90
2022-12-22T05:21:15.345Z,99.90
2022-12-22T05:23:43.306Z,99.90
2022-12-22T05:26:11.199Z,99.90
2022-12-22T05:28:38.363Z,99.90
2022-12-22T05:31:10.876Z,99.90
2022-12-22T05:33:38.139Z,99.90
2022-12-22T05:36:05.566Z,99.90
2022-12-22T05:38:32.827Z,99.90
2022-12-22T05:41:04.267Z,99.90
2022-12-22T05:43:32.783Z,99.90
2022-12-22T05:46:08.371Z,99.90
2022-12-22T05:48:38.925Z,99.90
2022-12-22T05:51:08.529Z,99.90
2022-12-22T05:53:36.619Z,99.90
2022-12-22T05:56:04.209Z,99.90
2022-12-22T05:58:31.365Z,99.90
2022-12-22T06:00:59.772Z,99.90
2022-12-22T06:03:28.298Z,99.90
2022-12-22T06:05:56.006Z,99.90
2022-12-22T06:08:23.957Z,99.90
2022-12-22T06:10:53.540Z,99.90
2022-12-22T06:13:20.887Z,99.90
2022-12-22T06:15:48.849Z,99.90
2022-12-22T06:18:16.012Z,99.90
2022-12-22T06:20:43.135Z,99.90
2022-12-22T06:23:10.318Z,99.90
2022-12-22T06:25:37.445Z,99.90
2022-12-22T06:28:04.816Z,99.90
2022-12-22T06:30:33.742Z,99.90
2022-12-22T06:33:01.550Z,99.90
2022-12-22T06:35:28.968Z,99.90
2022-12-22T06:37:56.211Z,99.90
2022-12-22T06:40:23.338Z,99.90
2022-12-22T06:43:09.601Z,99.90
2022-12-22T06:45:40.124Z,99.90
2022-12-22T06:48:08.711Z,99.90
2022-12-22T06:50:35.971Z,99.90
2022-12-22T06:53:04.376Z,99.90
2022-12-22T06:55:31.567Z,99.90
2022-12-22T06:57:58.766Z,99.90
2022-12-22T07:00:25.973Z,99.90
2022-12-22T07:02:53.352Z,99.90
2022-12-22T07:05:20.783Z,99.90
2022-12-22T07:07:47.934Z,99.90
2022-12-22T07:10:15.529Z,99.90
2022-12-22T07:12:42.779Z,99.90
2022-12-22T07:15:10.740Z,99.90
2022-12-22T07:17:38.207Z,99.90
2022-12-22T07:20:05.798Z,99.90
2022-12-22T07:22:33.083Z,99.90
2022-12-22T07:25:00.290Z,99.90
2022-12-22T07:27:27.455Z,1.00
2022-12-22T07:29:54.608Z,1.00
2022-12-22T07:32:21.843Z,1.00
2022-12-22T07:34:48.991Z,1.00
2022-12-22T07:37:16.104Z,1.00
2022-12-22T07:39:43.259Z,1.00
2022-12-22T07:42:31.081Z,1.00
2022-12-22T07:44:58.271Z,1.00
2022-12-22T07:47:28.599Z,1.00
2022-12-22T07:50:18.961Z,1.00
2022-12-22T07:52:46.067Z,1.00
2022-12-22T07:55:14.212Z,1.00
2022-12-22T07:57:41.373Z,99.90
2022-12-22T08:00:09.955Z,1.00
2022-12-22T08:02:39.367Z,1.00
2022-12-22T08:05:08.370Z,1.00
2022-12-22T08:07:35.649Z,1.00
2022-12-22T08:10:02.838Z,1.00
2022-12-22T08:12:30.909Z,1.00
2022-12-22T08:14:59.582Z,1.00
2022-12-22T08:17:27.988Z,1.00
2022-12-22T08:19:55.790Z,1.00
2022-12-22T08:22:24.079Z,1.00
2022-12-22T08:24:54.826Z,1.00
2022-12-22T08:27:31.735Z,1.00
2022-12-22T08:30:02.235Z,1.00
2022-12-22T08:32:29.558Z,1.00
2022-12-22T08:34:56.890Z,1.00
2022-12-22T08:37:27.608Z,1.00
2022-12-22T08:40:01.444Z,1.00
2022-12-22T08:42:28.844Z,1.00
2022-12-22T08:44:56.140Z,1.00
2022-12-22T08:47:23.598Z,1.00
2022-12-22T08:49:50.940Z,1.00
2022-12-22T08:52:19.296Z,1.00
2022-12-22T08:54:46.870Z,1.00
2022-12-22T08:57:14.040Z,1.00
2022-12-22T08:59:41.235Z,1.00
2022-12-22T09:02:08.528Z,99.90
2022-12-22T09:04:36.679Z,99.90
2022-12-22T09:07:04.028Z,99.90
2022-12-22T09:09:33.135Z,99.90
2022-12-22T09:12:01.492Z,99.90
2022-12-22T09:14:29.402Z,99.90
2022-12-22T09:16:56.860Z,99.90
2022-12-22T09:19:24.107Z,99.90
2022-12-22T09:21:51.399Z,99.90
2022-12-22T09:24:19.265Z,99.90
2022-12-22T09:26:46.833Z,99.90
2022-12-22T09:29:15.787Z,99.90
2022-12-22T09:31:43.976Z,99.90
2022-12-22T09:34:17.591Z,99.90
2022-12-22T09:36:45.729Z,99.90
2022-12-22T09:39:14.255Z,99.90
2022-12-22T09:41:50.524Z,99.90
2022-12-22T09:44:38.425Z,99.90
2022-12-22T09:47:17.525Z,99.40
2022-12-22T09:49:44.962Z,94.80
2022-12-22T09:52:38.276Z,94.50
2022-12-22T09:55:15.568Z,88.20
2022-12-22T09:57:42.783Z,76.30
2022-12-22T10:00:15.873Z,63.90
2022-12-22T10:02:50.714Z,64.50
2022-12-22T10:05:30.862Z,64.50
2022-12-22T10:08:03.016Z,70.60
2022-12-22T10:10:31.670Z,87.60
2022-12-22T10:13:01.971Z,67.70
2022-12-22T10:15:39.002Z,68.90
2022-12-22T10:18:17.863Z,68.20
2022-12-22T10:21:11.449Z,68.20
2022-12-22T10:23:47.058Z,62.50
2022-12-22T10:26:28.679Z,65.30
2022-12-22T10:29:05.125Z,65.80
2022-12-22T10:31:34.580Z,63.60
2022-12-22T10:34:13.954Z,59.10
2022-12-22T10:36:47.889Z,58.20
2022-12-22T10:39:33.966Z,55.90
2022-12-22T10:42:08.143Z,54.60
2022-12-22T10:44:37.880Z,54.30
2022-12-22T10:47:19.548Z,55.80
2022-12-22T10:49:50.015Z,53.10
2022-12-22T10:52:30.573Z,53.90
2022-12-22T10:55:22.958Z,50.40
2022-12-22T10:57:50.854Z,73.40
2022-12-22T11:00:29.851Z,52.60
2022-12-22T11:03:00.360Z,51.90
2022-12-22T11:05:28.837Z,52.60
2022-12-22T11:07:57.566Z,51.10
2022-12-22T11:10:32.883Z,50.50
2022-12-22T11:13:18.556Z,49.60
2022-12-22T11:15:52.105Z,50.80
2022-12-22T11:18:32.228Z,49.50
2022-12-22T11:21:23.635Z,53.20
2022-12-22T11:24:05.896Z,49.40
2022-12-22T11:27:01.420Z,50.10
2022-12-22T11:30:04.765Z,47.70
2022-12-22T11:32:57.802Z,46.20
2022-12-22T11:35:35.421Z,56.20
2022-12-22T11:38:17.466Z,46.00
2022-12-22T11:40:48.321Z,45.20
2022-12-22T11:43:43.276Z,43.60
2022-12-22T11:46:56.768Z,43.40
2022-12-22T11:49:35.687Z,43.60
2022-12-22T11:52:14.846Z,41.70
2022-12-22T11:55:17.327Z,42.00
2022-12-22T11:57:52.281Z,41.30
2022-12-22T12:00:20.144Z,40.60
2022-12-22T12:03:08.842Z,41.10
2022-12-22T12:05:54.653Z,39.00
2022-12-22T12:08:30.774Z,40.00
2022-12-22T12:11:28.401Z,40.50
2022-12-22T12:14:13.485Z,39.50
2022-12-22T12:17:00.148Z,38.80
2022-12-22T12:19:44.831Z,38.60
2022-12-22T12:22:53.220Z,37.60
2022-12-22T12:25:42.015Z,37.40
2022-12-22T12:28:48.118Z,37.00
2022-12-22T12:31:24.411Z,36.20
2022-12-22T12:33:56.927Z,36.70
2022-12-22T12:36:41.923Z,36.30
2022-12-22T12:39:12.269Z,34.60
2022-12-22T12:41:45.342Z,35.10
2022-12-22T12:44:15.359Z,35.10
2022-12-22T12:46:53.407Z,36.20
2022-12-22T12:49:36.167Z,37.30
2022-12-22T12:52:07.654Z,37.30
2022-12-22T12:54:44.631Z,36.80
2022-12-22T12:57:28.104Z,37.90
2022-12-22T12:59:58.183Z,38.40
2022-12-22T13:02:28.885Z,38.60
2022-12-22T13:05:14.568Z,37.80
2022-12-22T13:08:07.949Z,36.90
2022-12-22T13:10:47.812Z,37.40
2022-12-22T13:13:24.362Z,37.60
2022-12-22T13:16:00.773Z,38.00
2022-12-22T13:18:34.140Z,38.20
2022-12-22T13:21:50.749Z,37.90
2022-12-22T13:26:45.649Z,37.90
2022-12-22T13:29:23.786Z,37.70
2022-12-22T13:32:05.027Z,38.10
2022-12-22T13:35:29.700Z,38.60
2022-12-22T13:37:48.050Z,38.20
2022-12-22T13:40:21.920Z,38.70
2022-12-22T13:43:04.255Z,38.90
2022-12-22T13:45:51.221Z,36.40
2022-12-22T13:48:22.055Z,37.20
2022-12-22T13:50:50.914Z,38.10
2022-12-22T13:56:27.431Z,38.70
2022-12-22T13:58:59.582Z,39.40
2022-12-22T14:01:27.576Z,38.20
2022-12-22T14:04:02.485Z,37.70
2022-12-22T14:06:36.230Z,39.50
2022-12-22T14:09:21.128Z,38.40
2022-12-22T14:12:01.719Z,36.70
2022-12-22T14:14:41.969Z,37.10
2022-12-22T14:17:36.736Z,36.40
2022-12-22T14:20:17.820Z,36.30
2022-12-22T14:22:54.681Z,35.50
2022-12-22T14:25:27.409Z,35.80
2022-12-22T14:27:56.012Z,35.30
2022-12-22T14:30:41.428Z,35.70
2022-12-22T14:33:28.185Z,36.00
2022-12-22T14:36:06.500Z,36.20
2022-12-22T14:38:43.578Z,40.40
2022-12-22T14:41:41.623Z,34.40
2022-12-22T14:44:23.559Z,36.00
2022-12-22T14:47:09.734Z,35.40
2022-12-22T14:49:43.748Z,37.80
2022-12-22T14:52:39.381Z,38.40
2022-12-22T14:55:36.188Z,38.60
2022-12-22T14:58:14.889Z,40.20
2022-12-22T15:01:09.218Z,41.50
2022-12-22T15:03:38.121Z,42.30
2022-12-22T15:06:26.997Z,43.80
2022-12-22T15:09:14.383Z,44.30
2022-12-22T15:11:44.361Z,43.90
2022-12-22T15:14:15.586Z,41.80
2022-12-22T15:16:43.790Z,44.70
2022-12-22T15:19:22.456Z,44.70
2022-12-22T15:21:53.060Z,48.30
2022-12-22T15:24:20.296Z,61.50
2022-12-22T15:26:47.533Z,74.30
2022-12-22T15:29:14.792Z,76.70
2022-12-22T15:31:43.339Z,71.30
2022-12-22T15:34:32.583Z,70.20
2022-12-22T15:36:59.793Z,67.60
2022-12-22T15:39:27.322Z,65.50
2022-12-22T15:41:54.865Z,68.80
2022-12-22T15:44:22.573Z,72.50
2022-12-22T15:46:59.518Z,67.30
2022-12-22T15:49:29.690Z,65.80
2022-12-22T15:52:01.058Z,66.00
2022-12-22T15:54:31.039Z,63.30
2022-12-22T15:56:58.181Z,62.30
2022-12-22T15:59:27.222Z,64.60
2022-12-22T16:02:01.183Z,61.90
2022-12-22T16:04:30.105Z,59.80
2022-12-22T16:06:59.283Z,58.70
2022-12-22T16:09:32.557Z,56.80
2022-12-22T16:11:59.876Z,52.70
2022-12-22T16:14:27.156Z,56.50
2022-12-22T16:16:54.292Z,61.50
2022-12-22T16:19:21.989Z,72.90
2022-12-22T16:21:53.581Z,87.40
2022-12-22T16:24:31.529Z,90.70
2022-12-22T16:26:59.200Z,82.30
2022-12-22T16:29:27.436Z,79.10
2022-12-22T16:32:02.866Z,65.10
2022-12-22T16:34:30.051Z,58.20
2022-12-22T16:36:57.200Z,55.10
2022-12-22T16:39:24.357Z,60.40
2022-12-22T16:41:59.923Z,65.10
2022-12-22T16:47:21.178Z,70.50
2022-12-22T16:49:49.591Z,83.30
2022-12-22T16:52:23.270Z,80.80
2022-12-22T16:54:52.722Z,78.10
2022-12-22T16:57:20.184Z,73.20
2022-12-22T16:59:47.349Z,92.00
2022-12-22T17:02:29.981Z,94.50
2022-12-22T17:05:01.299Z,99.50
2022-12-22T17:07:33.532Z,99.40
2022-12-22T17:10:02.317Z,99.90
2022-12-22T17:12:33.615Z,99.90
2022-12-22T17:15:01.919Z,96.60
2022-12-22T17:17:34.272Z,95.40
2022-12-22T17:20:04.761Z,97.00
2022-12-22T17:22:33.688Z,89.60
2022-12-22T17:25:04.899Z,89.80
2022-12-22T17:27:33.678Z,90.90
2022-12-22T17:30:03.567Z,92.40
2022-12-22T17:32:30.857Z,95.00
2022-12-22T17:34:57.988Z,91.50
2022-12-22T17:37:26.592Z,82.10
2022-12-22T17:40:00.342Z,73.20
2022-12-22T17:42:27.702Z,67.90
2022-12-22T17:44:54.950Z,73.20
2022-12-22T17:47:29.051Z,79.10
2022-12-22T17:49:59.555Z,87.20
2022-12-22T17:52:28.182Z,93.40
2022-12-22T17:54:55.612Z,92.40
2022-12-22T17:57:29.992Z,90.80
2022-12-22T17:59:57.176Z,86.20
2022-12-22T18:02:26.239Z,92.90
2022-12-22T18:04:53.913Z,99.90
2022-12-22T18:07:23.874Z,99.90
2022-12-22T18:09:56.390Z,99.90
2022-12-22T18:12:27.289Z,99.90
2022-12-22T18:14:54.798Z,99.90
2022-12-22T18:17:34.863Z,99.90
2022-12-22T18:20:02.933Z,99.90
2022-12-22T18:22:31.171Z,99.90
2022-12-22T18:24:58.795Z,99.90
2022-12-22T18:27:27.575Z,99.90
2022-12-22T18:29:54.709Z,99.90
2022-12-22T18:32:27.504Z,99.90
2022-12-22T18:34:54.908Z,98.60
2022-12-22T18:37:22.115Z,99.90
2022-12-22T18:39:49.389Z,94.80
2022-12-22T18:42:23.783Z,97.60
2022-12-22T18:44:51.679Z,92.80
2022-12-22T18:47:19.146Z,91.60
2022-12-22T18:49:46.873Z,96.40
2022-12-22T18:52:23.448Z,99.90
2022-12-22T18:54:50.772Z,99.90
2022-12-22T18:57:19.825Z,99.90
2022-12-22T18:59:48.326Z,99.90
2022-12-22T19:02:35.776Z,99.90
2022-12-22T19:05:06.785Z,99.90
2022-12-22T19:07:33.968Z,99.90
2022-12-22T19:10:01.360Z,99.90
2022-12-22T19:12:28.830Z,99.90
2022-12-22T19:15:03.430Z,98.00
2022-12-22T19:17:30.956Z,97.90
2022-12-22T19:19:58.425Z,99.90
2022-12-22T19:22:26.172Z,99.90
2022-12-22T19:24:57.501Z,99.90
2022-12-22T19:27:26.660Z,99.90
2022-12-22T19:30:03.595Z,99.90
2022-12-22T19:32:40.157Z,99.90
2022-12-22T19:35:18.901Z,99.90
2022-12-22T19:37:48.143Z,99.90
2022-12-22T19:40:16.643Z,99.90
2022-12-22T19:42:47.481Z,99.90
2022-12-22T19:45:23.656Z,99.90
2022-12-22T19:47:53.265Z,99.90
2022-12-22T19:50:26.848Z,99.90
2022-12-22T19:52:55.320Z,99.90
2022-12-22T19:55:24.940Z,99.90
2022-12-22T19:57:52.586Z,99.90
2022-12-22T20:00:25.663Z,99.90
2022-12-22T20:02:56.073Z,99.90
2022-12-22T20:05:23.273Z,99.90
2022-12-22T20:07:51.967Z,99.90
2022-12-22T20:10:20.663Z,99.90
2022-12-22T20:12:51.094Z,99.90
2022-12-22T20:15:20.630Z,99.90
2022-12-22T20:17:50.003Z,99.90
2022-12-22T20:20:35.034Z,99.90
2022-12-22T20:23:20.789Z,99.90
2022-12-22T20:25:53.445Z,99.90
2022-12-22T20:28:26.434Z,99.90
2022-12-22T20:30:54.474Z,99.90
2022-12-22T20:33:23.328Z,99.90
2022-12-22T20:35:52.442Z,99.90
2022-12-22T20:38:40.559Z,99.90
2022-12-22T20:41:09.728Z,99.90
2022-12-22T20:43:38.616Z,99.90
2022-12-22T20:46:18.390Z,99.90
2022-12-22T20:48:55.937Z,99.90
2022-12-22T20:51:25.752Z,99.90
2022-12-22T20:53:53.516Z,99.90
2022-12-22T20:56:28.199Z,99.90
2022-12-22T20:58:56.833Z,99.90
2022-12-22T21:01:24.223Z,99.90
2022-12-22T21:03:51.907Z,99.90
2022-12-22T21:06:33.113Z,99.90
2022-12-22T21:09:01.079Z,99.90
2022-12-22T21:11:29.831Z,99.90
2022-12-22T21:13:58.155Z,99.90
2022-12-22T21:16:28.344Z,98.00
2022-12-22T21:18:55.843Z,95.20
2022-12-22T21:21:23.779Z,94.50
2022-12-22T21:23:51.093Z,91.80
2022-12-22T21:26:22.919Z,91.70
2022-12-22T21:28:50.636Z,99.90
2022-12-22T21:31:17.886Z,99.90
2022-12-22T21:33:45.559Z,99.90
2022-12-22T21:36:22.745Z,99.90
2022-12-22T21:38:53.668Z,99.90
2022-12-22T21:41:40.839Z,99.90
2022-12-22T21:44:08.601Z,99.90
2022-12-22T21:46:35.815Z,99.90
2022-12-22T21:49:02.961Z,99.90
2022-12-22T21:51:30.135Z,99.90
2022-12-22T21:53:57.244Z,99.90
2022-12-22T21:56:24.371Z,99.90
2022-12-22T21:58:51.477Z,99.90
2022-12-22T22:01:18.718Z,99.90
2022-12-22T22:03:45.958Z,99.90
2022-12-22T22:06:13.116Z,99.90
2022-12-22T22:08:40.281Z,99.90
2022-12-22T22:11:20.337Z,99.90
2022-12-22T22:13:47.923Z,99.90
2022-12-22T22:16:15.858Z,99.90
2022-12-22T22:18:44.697Z,99.90
2022-12-22T22:21:13.636Z,99.90
2022-12-22T22:23:40.817Z,99.90
2022-12-22T22:26:08.670Z,99.90
2022-12-22T22:28:35.983Z,99.90
2022-12-22T22:31:10.139Z,99.90
2022-12-22T22:33:37.743Z,99.90
2022-12-22T22:36:08.443Z,99.90
2022-12-22T22:38:36.117Z,99.90
2022-12-22T22:41:03.381Z,99.90
2022-12-22T22:43:30.670Z,99.90
2022-12-22T22:45:57.940Z,99.90
2022-12-22T22:48:26.015Z,99.90
2022-12-22T22:50:53.198Z,99.90
2022-12-22T22:53:20.511Z,99.90
2022-12-22T22:55:47.702Z,99.90
2022-12-22T22:58:14.876Z,99.90
2022-12-22T23:00:42.005Z,99.90
2022-12-22T23:03:09.231Z,99.90
2022-12-22T23:05:36.602Z,99.90
2022-12-22T23:08:03.963Z,99.90
2022-12-22T23:10:33.711Z,99.90
2022-12-22T23:13:04.941Z,99.90
2022-12-22T23:15:32.037Z,99.90
2022-12-22T23:17:59.290Z,99.90
2022-12-22T23:20:26.446Z,99.90
2022-12-22T23:22:53.581Z,99.90
2022-12-22T23:25:20.722Z,99.90
2022-12-22T23:27:47.820Z,99.90
2022-12-22T23:30:15.195Z,99.90
2022-12-22T23:32:42.349Z,99.90
2022-12-22T23:35:09.661Z,99.90
2022-12-22T23:37:36.785Z,99.90
2022-12-22T23:40:33.191Z,99.90
2022-12-22T23:42:56.594Z,99.90
2022-12-22T23:45:24.303Z,99.90
2022-12-22T23:47:51.463Z,99.90
2022-12-22T23:50:18.612Z,99.90
2022-12-22T23:52:49.346Z,99.90
2022-12-22T23:55:17.259Z,99.90
2022-12-22T23:57:44.544Z,99.90
